createdAt,value
2022-08-18T00:02:38.557Z,14.6
2022-08-18T00:08:36.002Z,13.9
2022-08-18T00:14:30.989Z,14.4
2022-08-18T00:20:22.286Z,14.7
2022-08-18T00:26:16.073Z,16.5
2022-08-18T00:32:07.828Z,15.5
2022-08-18T00:38:00.729Z,16.4
2022-08-18T00:43:52.321Z,22.7
2022-08-18T00:49:43.895Z,18.7
2022-08-18T00:55:35.831Z,19.9
2022-08-18T01:01:28.165Z,17.7
2022-08-18T01:07:20.319Z,17.7
2022-08-18T01:13:13.572Z,17.6
2022-08-18T01:19:05.105Z,18.1
2022-08-18T01:24:58.591Z,19
2022-08-18T01:30:49.044Z,20
2022-08-18T01:36:41.566Z,21.5
2022-08-18T01:42:33.907Z,17.5
2022-08-18T01:48:27.999Z,16.3
2022-08-18T01:54:20.197Z,16.6
2022-08-18T02:00:20.823Z,18.6
2022-08-18T02:06:16.722Z,19.5
2022-08-18T02:12:06.830Z,22.9
2022-08-18T02:18:00.636Z,21.9
2022-08-18T02:24:01.939Z,21
2022-08-18T02:29:53.106Z,19.6
2022-08-18T02:35:43.982Z,20.7
2022-08-18T02:41:36.498Z,21.1
2022-08-18T02:47:34.912Z,21.5
2022-08-18T02:53:25.830Z,20.7
2022-08-18T02:59:17.713Z,20
2022-08-18T03:05:16.401Z,23.3
2022-08-18T03:11:06.979Z,25
2022-08-18T03:17:00.770Z,21.6
2022-08-18T03:22:51.933Z,23.5
2022-08-18T03:28:42.849Z,22.8
2022-08-18T03:34:31.243Z,20.5
2022-08-18T03:40:23.269Z,22.2
2022-08-18T03:46:12.546Z,25
2022-08-18T03:52:04.710Z,25.6
2022-08-18T03:57:57.934Z,27.8
2022-08-18T04:03:51.039Z,28
2022-08-18T04:09:44.118Z,27.6
2022-08-18T04:15:34.882Z,26
2022-08-18T04:21:26.726Z,25.3
2022-08-18T04:27:19.210Z,26
2022-08-18T04:33:12.933Z,27.9
2022-08-18T04:39:05.671Z,27.2
2022-08-18T04:44:57.245Z,27
2022-08-18T04:50:48.933Z,25.8
2022-08-18T04:56:40.671Z,26.5
2022-08-18T05:02:31.890Z,27.7
2022-08-18T05:08:23.210Z,28
2022-08-18T05:14:11.826Z,29.3
2022-08-18T05:20:05.343Z,33.3
2022-08-18T05:25:59.447Z,34.9
2022-08-18T05:31:51.913Z,40.1
2022-08-18T05:37:43.331Z,33.5
2022-08-18T05:43:36.669Z,36.2
2022-08-18T05:49:36.617Z,35.4
2022-08-18T05:55:27.394Z,35.1
2022-08-18T06:01:18.279Z,38
2022-08-18T06:07:08.428Z,43.5
2022-08-18T06:12:59.413Z,35.4
2022-08-18T06:18:50.831Z,38.1
2022-08-18T06:24:41.173Z,41.3
2022-08-18T06:30:31.577Z,57.6
2022-08-18T06:36:28.083Z,62.8
2022-08-18T06:42:20.288Z,64.4
2022-08-18T06:48:21.762Z,63.5
2022-08-18T06:54:10.650Z,61.7
2022-08-18T07:00:02.193Z,60.2
2022-08-18T07:05:52.446Z,58.3
2022-08-18T07:11:45.882Z,61.9
2022-08-18T07:17:50.026Z,57.6
2022-08-18T07:23:40.939Z,56.6
2022-08-18T07:29:31.217Z,53.3
2022-08-18T07:35:21.911Z,49
2022-08-18T07:41:11.939Z,48.3
2022-08-18T07:47:02.683Z,47.4
2022-08-18T07:52:57.831Z,50.4
2022-08-18T07:58:51.090Z,50.8
2022-08-18T08:04:44.978Z,52.2
2022-08-18T08:10:36.173Z,51.6
2022-08-18T08:16:29.844Z,53
2022-08-18T08:22:22.235Z,52.9
2022-08-18T08:28:15.812Z,59.2
2022-08-18T08:34:18.215Z,60.2
2022-08-18T08:40:09.930Z,56.3
2022-08-18T08:46:01.752Z,57.6
2022-08-18T08:52:00.276Z,57
2022-08-18T08:57:49.964Z,57.8
2022-08-18T09:03:41.793Z,59
2022-08-18T09:09:32.332Z,56.3
2022-08-18T09:15:21.554Z,55
2022-08-18T09:21:12.870Z,53.7
2022-08-18T09:27:04.503Z,52.7
2022-08-18T09:32:59.350Z,54.1
2022-08-18T09:38:52.867Z,55
2022-08-18T09:44:50.896Z,50.1
2022-08-18T10:11:28.636Z,49.6
2022-08-18T10:31:33.500Z,48.5
2022-08-18T10:44:46.640Z,42.9
2022-08-18T10:50:55.045Z,41.8
2022-08-18T11:17:26.550Z,41.2
2022-08-18T11:30:14.240Z,42.5
2022-08-18T11:37:05.220Z,43.1
2022-08-18T11:43:46.703Z,49.1
2022-08-18T11:49:50.729Z,49.6
2022-08-18T13:04:57.708Z,48.1
2022-08-18T13:11:21.365Z,39.7
2022-08-18T13:17:44.349Z,35.1
2022-08-18T13:23:37.027Z,34
2022-08-18T13:29:30.219Z,36.9
2022-08-18T13:35:45.613Z,34.4
2022-08-18T13:41:40.290Z,33.4
2022-08-18T13:47:46.893Z,35.3
2022-08-18T13:54:30.725Z,37.3
2022-08-18T14:00:37.113Z,35.7
2022-08-18T14:06:31.700Z,36.6
2022-08-18T14:12:40.956Z,34.8
2022-08-18T14:18:36.638Z,33.8
2022-08-18T14:24:31.372Z,31.3
2022-08-18T14:30:27.495Z,33.7
2022-08-18T14:36:19.562Z,32.1
2022-08-18T14:42:18.750Z,32.1
2022-08-18T14:48:17.472Z,33.3
2022-08-18T14:54:10.156Z,34.1
2022-08-18T15:00:17.152Z,32.4
2022-08-18T15:06:28.702Z,30.4
2022-08-18T15:12:23.236Z,32.2
2022-08-18T15:18:28.359Z,35.3
2022-08-18T15:24:27.234Z,31.9
2022-08-18T15:30:26.698Z,32.7
2022-08-18T15:36:32.334Z,32.4
2022-08-18T15:42:24.487Z,28.4
2022-08-18T15:48:19.128Z,26
2022-08-18T15:54:14.921Z,26
2022-08-18T16:00:05.814Z,26.8
2022-08-18T16:05:58.700Z,25.9
2022-08-18T16:11:49.358Z,25.4
2022-08-18T16:17:39.008Z,23.5
2022-08-18T16:23:28.500Z,20
2022-08-18T16:29:17.891Z,20.1
2022-08-18T16:35:07.280Z,18.9
2022-08-18T16:40:57.361Z,19
2022-08-18T16:46:46.700Z,18.5
2022-08-18T16:52:36.334Z,17.3
2022-08-18T16:58:25.740Z,18.7
2022-08-18T17:04:25.396Z,18.8
2022-08-18T17:10:14.360Z,17.2
2022-08-18T17:16:03.891Z,17.2
2022-08-18T17:21:53.341Z,16.6
2022-08-18T17:27:50.153Z,15.6
2022-08-18T17:33:41.554Z,14.6
2022-08-18T17:39:30.983Z,13.6
2022-08-18T17:45:28.205Z,12.5
2022-08-18T17:51:17.217Z,12.7
2022-08-18T17:57:06.952Z,13.6
2022-08-18T18:02:56.399Z,14.8
2022-08-18T18:08:46.248Z,14.2
2022-08-18T18:14:35.569Z,15.5
2022-08-18T18:20:25.033Z,16
2022-08-18T18:26:15.874Z,16.5
2022-08-18T18:32:05.645Z,15.2
2022-08-18T18:37:56.000Z,14.8
2022-08-18T18:43:45.681Z,14.7
2022-08-18T18:49:35.010Z,14.7
2022-08-18T18:55:24.307Z,15
2022-08-18T19:01:13.710Z,15
2022-08-18T19:07:03.294Z,14.8
2022-08-18T19:12:51.986Z,15.3
2022-08-18T19:18:41.267Z,14.4
2022-08-18T19:24:34.594Z,14.7
2022-08-18T19:30:24.737Z,13.9
2022-08-18T19:36:32.336Z,14
2022-08-18T19:42:24.937Z,13.7
2022-08-18T19:48:21.284Z,14.9
2022-08-18T19:54:11.619Z,14.5
2022-08-18T20:00:09.924Z,14.5
2022-08-18T20:06:36.939Z,15.6
2022-08-18T20:12:25.665Z,15.3
2022-08-18T20:18:16.755Z,14.6
2022-08-18T20:24:08.579Z,14.1
2022-08-18T20:30:05.088Z,14.7
2022-08-18T20:35:56.307Z,15.9
2022-08-18T20:41:48.015Z,15.6
2022-08-18T20:47:38.937Z,16
2022-08-18T20:53:38.178Z,16.2
2022-08-18T20:59:27.912Z,15.3
2022-08-18T21:05:33.064Z,15.4
2022-08-18T21:12:35.137Z,16.1
2022-08-18T21:18:24.968Z,15.7
2022-08-18T21:24:16.239Z,17.1
2022-08-18T21:30:07.302Z,16.7
2022-08-18T21:35:58.187Z,16.5
2022-08-18T21:41:51.554Z,16.9
2022-08-18T21:47:41.973Z,16.4
2022-08-18T21:53:34.441Z,15.4
2022-08-18T21:59:25.075Z,15.2
2022-08-18T22:05:16.473Z,16.4
2022-08-18T22:11:09.265Z,14.8
2022-08-18T22:17:00.250Z,14.4
2022-08-18T22:22:51.656Z,14.6
2022-08-18T22:28:43.322Z,14.5
2022-08-18T22:34:35.110Z,14
2022-08-18T22:40:28.457Z,14.5
2022-08-18T22:46:29.395Z,13.4
2022-08-18T22:52:19.641Z,13.2
2022-08-18T22:58:32.311Z,13.9
2022-08-18T23:04:22.341Z,13.1
2022-08-18T23:10:22.385Z,13.3
2022-08-18T23:16:44.052Z,13.4
2022-08-18T23:28:54.277Z,12.7
2022-08-18T23:41:30.154Z,12.6
2022-08-18T23:47:30.426Z,12.9
2022-08-18T23:53:32.962Z,12.3
2022-08-18T23:59:39.041Z,12.2
